Terminal Aerodrome Forecast
Issued by NWS

Home | Current Version | Previous Version | Text Only | Print | Product List | Glossary On
Versions: 1 2 3 4 5 6 7 8 9 10 11 12 13 14 15 16 17 18 19 20 21 22 23 24 25 26 27 28 29
000
FTUS45 KGJT 262320
TAFMTJ
TAF
KMTJ 262320Z 2700/2724 VRB04KT P6SM VCSH BKN090 OVC100
     FM270200 19006KT P6SM VCSH OVC050
     FM270600 18005KT 6SM -SHRA OVC060
     FM271100 22004KT P6SM VCSH BKN045
     FM271700 28011KT P6SM VCSH BKN060=

USA.gov is the U.S. government's official web portal to all federal, state and local government web resources and services.